sensor_id;sensor_type;location;lat;lon;timestamp;P1;durP1;ratioP1;P2;durP2;ratioP2
44189;SDS011;29856;52.144;5.430;2023-05-07T00:00:23;7.35;;;5.43;;
44189;SDS011;29856;52.144;5.430;2023-05-07T00:02:49;11.68;;;6.03;;
44189;SDS011;29856;52.144;5.430;2023-05-07T00:05:14;8.18;;;5.97;;
44189;SDS011;29856;52.144;5.430;2023-05-07T00:07:43;8.35;;;5.88;;
44189;SDS011;29856;52.144;5.430;2023-05-07T00:10:09;8.10;;;6.32;;
44189;SDS011;29856;52.144;5.430;2023-05-07T00:12:35;8.13;;;6.07;;
44189;SDS011;29856;52.144;5.430;2023-05-07T00:15:04;7.10;;;5.32;;
44189;SDS011;29856;52.144;5.430;2023-05-07T00:17:30;7.88;;;5.25;;
44189;SDS011;29856;52.144;5.430;2023-05-07T00:19:56;9.90;;;5.68;;
44189;SDS011;29856;52.144;5.430;2023-05-07T00:22:21;7.43;;;6.68;;
44189;SDS011;29856;52.144;5.430;2023-05-07T00:24:47;7.03;;;5.90;;
44189;SDS011;29856;52.144;5.430;2023-05-07T00:27:12;7.75;;;5.60;;
44189;SDS011;29856;52.144;5.430;2023-05-07T00:29:38;9.63;;;7.32;;
44189;SDS011;29856;52.144;5.430;2023-05-07T00:32:04;8.65;;;6.13;;
44189;SDS011;29856;52.144;5.430;2023-05-07T00:34:30;16.70;;;11.38;;
44189;SDS011;29856;52.144;5.430;2023-05-07T00:36:55;8.20;;;7.15;;
44189;SDS011;29856;52.144;5.430;2023-05-07T00:39:20;7.47;;;6.53;;
44189;SDS011;29856;52.144;5.430;2023-05-07T00:41:46;7.93;;;7.13;;
44189;SDS011;29856;52.144;5.430;2023-05-07T00:44:11;11.77;;;8.88;;
44189;SDS011;29856;52.144;5.430;2023-05-07T00:46:38;11.80;;;8.60;;
44189;SDS011;29856;52.144;5.430;2023-05-07T00:49:03;11.40;;;9.60;;
44189;SDS011;29856;52.144;5.430;2023-05-07T00:51:29;11.27;;;9.10;;
44189;SDS011;29856;52.144;5.430;2023-05-07T00:53:55;9.90;;;7.22;;
44189;SDS011;29856;52.144;5.430;2023-05-07T00:56:21;10.43;;;7.93;;
44189;SDS011;29856;52.144;5.430;2023-05-07T00:58:47;14.93;;;10.07;;
44189;SDS011;29856;52.144;5.430;2023-05-07T01:01:13;12.55;;;8.90;;
44189;SDS011;29856;52.144;5.430;2023-05-07T01:03:39;12.40;;;8.40;;
44189;SDS011;29856;52.144;5.430;2023-05-07T01:06:05;9.85;;;6.70;;
44189;SDS011;29856;52.144;5.430;2023-05-07T01:08:32;12.50;;;8.77;;
44189;SDS011;29856;52.144;5.430;2023-05-07T01:10:58;10.52;;;7.35;;
44189;SDS011;29856;52.144;5.430;2023-05-07T01:13:24;10.88;;;8.25;;
44189;SDS011;29856;52.144;5.430;2023-05-07T01:15:50;8.85;;;6.90;;
44189;SDS011;29856;52.144;5.430;2023-05-07T01:18:15;9.48;;;7.47;;
44189;SDS011;29856;52.144;5.430;2023-05-07T01:20:41;9.55;;;7.10;;
44189;SDS011;29856;52.144;5.430;2023-05-07T01:23:07;7.75;;;6.50;;
44189;SDS011;29856;52.144;5.430;2023-05-07T01:25:35;7.85;;;7.03;;
44189;SDS011;29856;52.144;5.430;2023-05-07T01:28:01;11.18;;;6.72;;
44189;SDS011;29856;52.144;5.430;2023-05-07T01:30:26;10.50;;;6.38;;
44189;SDS011;29856;52.144;5.430;2023-05-07T01:32:58;10.70;;;7.28;;
44189;SDS011;29856;52.144;5.430;2023-05-07T01:35:33;8.40;;;6.88;;
44189;SDS011;29856;52.144;5.430;2023-05-07T01:38:02;9.02;;;7.65;;
44189;SDS011;29856;52.144;5.430;2023-05-07T01:40:28;8.95;;;7.10;;
44189;SDS011;29856;52.144;5.430;2023-05-07T01:42:54;11.15;;;7.43;;
44189;SDS011;29856;52.144;5.430;2023-05-07T01:45:19;9.65;;;7.45;;
44189;SDS011;29856;52.144;5.430;2023-05-07T01:47:45;10.95;;;7.75;;
44189;SDS011;29856;52.144;5.430;2023-05-07T01:50:11;10.27;;;7.13;;
44189;SDS011;29856;52.144;5.430;2023-05-07T01:52:37;10.73;;;6.70;;
44189;SDS011;29856;52.144;5.430;2023-05-07T01:55:03;10.00;;;7.22;;
44189;SDS011;29856;52.144;5.430;2023-05-07T01:57:29;9.13;;;7.70;;
44189;SDS011;29856;52.144;5.430;2023-05-07T01:59:55;8.35;;;6.88;;
44189;SDS011;29856;52.144;5.430;2023-05-07T02:02:20;8.20;;;6.43;;
44189;SDS011;29856;52.144;5.430;2023-05-07T02:04:46;10.13;;;7.22;;
44189;SDS011;29856;52.144;5.430;2023-05-07T02:07:11;9.27;;;6.97;;
44189;SDS011;29856;52.144;5.430;2023-05-07T02:09:37;8.80;;;6.82;;
44189;SDS011;29856;52.144;5.430;2023-05-07T02:12:03;10.00;;;8.38;;
44189;SDS011;29856;52.144;5.430;2023-05-07T02:14:28;11.32;;;7.38;;
44189;SDS011;29856;52.144;5.430;2023-05-07T02:16:54;9.68;;;6.85;;
44189;SDS011;29856;52.144;5.430;2023-05-07T02:19:19;7.25;;;6.45;;
44189;SDS011;29856;52.144;5.430;2023-05-07T02:21:45;9.68;;;6.75;;
44189;SDS011;29856;52.144;5.430;2023-05-07T02:24:10;9.73;;;7.05;;
44189;SDS011;29856;52.144;5.430;2023-05-07T02:26:36;8.75;;;6.80;;
44189;SDS011;29856;52.144;5.430;2023-05-07T02:29:01;8.77;;;6.53;;
44189;SDS011;29856;52.144;5.430;2023-05-07T02:31:27;8.05;;;6.85;;
44189;SDS011;29856;52.144;5.430;2023-05-07T02:33:52;8.48;;;6.78;;
44189;SDS011;29856;52.144;5.430;2023-05-07T02:36:18;7.82;;;7.10;;
44189;SDS011;29856;52.144;5.430;2023-05-07T02:38:43;9.90;;;7.35;;
44189;SDS011;29856;52.144;5.430;2023-05-07T02:41:09;8.38;;;6.78;;
44189;SDS011;29856;52.144;5.430;2023-05-07T02:43:34;9.50;;;7.20;;
44189;SDS011;29856;52.144;5.430;2023-05-07T02:46:06;9.95;;;8.25;;
44189;SDS011;29856;52.144;5.430;2023-05-07T02:48:33;10.93;;;7.18;;
44189;SDS011;29856;52.144;5.430;2023-05-07T02:50:59;9.20;;;7.50;;
44189;SDS011;29856;52.144;5.430;2023-05-07T02:53:25;8.32;;;7.45;;
44189;SDS011;29856;52.144;5.430;2023-05-07T02:55:57;9.20;;;7.38;;
44189;SDS011;29856;52.144;5.430;2023-05-07T02:58:24;9.60;;;7.22;;
44189;SDS011;29856;52.144;5.430;2023-05-07T03:00:50;8.90;;;7.88;;
44189;SDS011;29856;52.144;5.430;2023-05-07T03:03:16;10.52;;;8.02;;
44189;SDS011;29856;52.144;5.430;2023-05-07T03:05:41;11.93;;;7.78;;
44189;SDS011;29856;52.144;5.430;2023-05-07T03:08:07;10.57;;;8.02;;
44189;SDS011;29856;52.144;5.430;2023-05-07T03:10:33;10.07;;;7.35;;
44189;SDS011;29856;52.144;5.430;2023-05-07T03:12:58;9.10;;;6.70;;
44189;SDS011;29856;52.144;5.430;2023-05-07T03:15:24;8.68;;;7.57;;
44189;SDS011;29856;52.144;5.430;2023-05-07T03:17:50;11.70;;;8.50;;
44189;SDS011;29856;52.144;5.430;2023-05-07T03:20:15;9.70;;;7.78;;
44189;SDS011;29856;52.144;5.430;2023-05-07T03:22:41;13.82;;;9.05;;
44189;SDS011;29856;52.144;5.430;2023-05-07T03:25:06;11.20;;;7.88;;
44189;SDS011;29856;52.144;5.430;2023-05-07T03:27:33;13.55;;;9.02;;
44189;SDS011;29856;52.144;5.430;2023-05-07T03:29:59;10.13;;;8.45;;
44189;SDS011;29856;52.144;5.430;2023-05-07T03:32:25;11.25;;;9.48;;
44189;SDS011;29856;52.144;5.430;2023-05-07T03:34:50;10.68;;;8.98;;
44189;SDS011;29856;52.144;5.430;2023-05-07T03:37:16;9.93;;;9.00;;
44189;SDS011;29856;52.144;5.430;2023-05-07T03:39:41;9.00;;;7.95;;
44189;SDS011;29856;52.144;5.430;2023-05-07T03:42:07;10.05;;;9.05;;
44189;SDS011;29856;52.144;5.430;2023-05-07T03:44:32;10.10;;;9.15;;
44189;SDS011;29856;52.144;5.430;2023-05-07T03:46:58;9.60;;;8.60;;
44189;SDS011;29856;52.144;5.430;2023-05-07T03:49:23;10.95;;;9.48;;
44189;SDS011;29856;52.144;5.430;2023-05-07T03:51:49;11.80;;;9.18;;
44189;SDS011;29856;52.144;5.430;2023-05-07T03:54:14;11.20;;;9.85;;
44189;SDS011;29856;52.144;5.430;2023-05-07T03:56:40;9.65;;;8.75;;
44189;SDS011;29856;52.144;5.430;2023-05-07T03:59:05;9.98;;;8.95;;
44189;SDS011;29856;52.144;5.430;2023-05-07T04:01:31;10.00;;;9.00;;
44189;SDS011;29856;52.144;5.430;2023-05-07T04:03:56;10.43;;;9.40;;
44189;SDS011;29856;52.144;5.430;2023-05-07T04:06:22;10.68;;;9.57;;
44189;SDS011;29856;52.144;5.430;2023-05-07T04:08:47;13.65;;;10.50;;
44189;SDS011;29856;52.144;5.430;2023-05-07T04:11:13;11.48;;;9.50;;
44189;SDS011;29856;52.144;5.430;2023-05-07T04:13:38;12.35;;;10.27;;
44189;SDS011;29856;52.144;5.430;2023-05-07T04:16:04;15.00;;;11.05;;
44189;SDS011;29856;52.144;5.430;2023-05-07T04:18:30;11.43;;;9.95;;
44189;SDS011;29856;52.144;5.430;2023-05-07T04:20:56;12.98;;;10.98;;
44189;SDS011;29856;52.144;5.430;2023-05-07T04:23:21;13.95;;;11.18;;
44189;SDS011;29856;52.144;5.430;2023-05-07T04:25:47;12.07;;;10.65;;
44189;SDS011;29856;52.144;5.430;2023-05-07T04:28:12;11.98;;;10.63;;
44189;SDS011;29856;52.144;5.430;2023-05-07T04:30:38;13.13;;;11.38;;
44189;SDS011;29856;52.144;5.430;2023-05-07T04:33:04;14.35;;;11.07;;
44189;SDS011;29856;52.144;5.430;2023-05-07T04:35:29;12.40;;;10.50;;
44189;SDS011;29856;52.144;5.430;2023-05-07T04:37:55;14.68;;;11.00;;
44189;SDS011;29856;52.144;5.430;2023-05-07T04:40:20;13.55;;;10.35;;
44189;SDS011;29856;52.144;5.430;2023-05-07T04:42:46;18.13;;;11.63;;
44189;SDS011;29856;52.144;5.430;2023-05-07T04:45:11;12.63;;;11.32;;
44189;SDS011;29856;52.144;5.430;2023-05-07T04:47:37;13.23;;;11.93;;
44189;SDS011;29856;52.144;5.430;2023-05-07T04:50:02;14.57;;;11.82;;
44189;SDS011;29856;52.144;5.430;2023-05-07T04:52:28;16.80;;;12.68;;
44189;SDS011;29856;52.144;5.430;2023-05-07T04:54:54;17.27;;;12.63;;
44189;SDS011;29856;52.144;5.430;2023-05-07T04:57:19;15.15;;;13.05;;
44189;SDS011;29856;52.144;5.430;2023-05-07T04:59:45;14.70;;;11.63;;
44189;SDS011;29856;52.144;5.430;2023-05-07T05:02:10;12.93;;;11.07;;
44189;SDS011;29856;52.144;5.430;2023-05-07T05:04:36;15.80;;;11.93;;
44189;SDS011;29856;52.144;5.430;2023-05-07T05:07:01;14.43;;;12.05;;
44189;SDS011;29856;52.144;5.430;2023-05-07T05:09:27;15.57;;;12.10;;
44189;SDS011;29856;52.144;5.430;2023-05-07T05:11:52;16.67;;;12.35;;
44189;SDS011;29856;52.144;5.430;2023-05-07T05:14:19;16.50;;;12.55;;
44189;SDS011;29856;52.144;5.430;2023-05-07T05:16:44;16.63;;;12.77;;
44189;SDS011;29856;52.144;5.430;2023-05-07T05:19:10;19.35;;;13.55;;
44189;SDS011;29856;52.144;5.430;2023-05-07T05:21:35;15.48;;;12.75;;
44189;SDS011;29856;52.144;5.430;2023-05-07T05:24:00;14.73;;;12.60;;
44189;SDS011;29856;52.144;5.430;2023-05-07T05:26:26;18.05;;;13.48;;
44189;SDS011;29856;52.144;5.430;2023-05-07T05:28:51;16.73;;;13.85;;
44189;SDS011;29856;52.144;5.430;2023-05-07T05:31:17;16.20;;;13.10;;
44189;SDS011;29856;52.144;5.430;2023-05-07T05:33:42;18.63;;;14.32;;
44189;SDS011;29856;52.144;5.430;2023-05-07T05:36:11;15.25;;;13.65;;
44189;SDS011;29856;52.144;5.430;2023-05-07T05:38:36;17.90;;;13.73;;
44189;SDS011;29856;52.144;5.430;2023-05-07T05:41:02;21.08;;;14.65;;
44189;SDS011;29856;52.144;5.430;2023-05-07T05:43:27;17.40;;;14.40;;
44189;SDS011;29856;52.144;5.430;2023-05-07T05:45:53;18.83;;;13.85;;
44189;SDS011;29856;52.144;5.430;2023-05-07T05:48:20;22.38;;;15.27;;
44189;SDS011;29856;52.144;5.430;2023-05-07T05:50:45;15.35;;;13.70;;
44189;SDS011;29856;52.144;5.430;2023-05-07T05:53:11;21.70;;;17.48;;
44189;SDS011;29856;52.144;5.430;2023-05-07T05:55:36;19.92;;;15.85;;
44189;SDS011;29856;52.144;5.430;2023-05-07T05:58:02;17.25;;;14.80;;
44189;SDS011;29856;52.144;5.430;2023-05-07T06:00:28;17.48;;;15.68;;
44189;SDS011;29856;52.144;5.430;2023-05-07T06:02:54;19.30;;;15.98;;
44189;SDS011;29856;52.144;5.430;2023-05-07T06:05:19;17.95;;;15.18;;
44189;SDS011;29856;52.144;5.430;2023-05-07T06:07:45;21.95;;;15.77;;
44189;SDS011;29856;52.144;5.430;2023-05-07T06:10:10;18.58;;;16.75;;
44189;SDS011;29856;52.144;5.430;2023-05-07T06:12:36;20.20;;;16.95;;
44189;SDS011;29856;52.144;5.430;2023-05-07T06:15:02;18.13;;;16.30;;
44189;SDS011;29856;52.144;5.430;2023-05-07T06:17:27;16.77;;;15.07;;
44189;SDS011;29856;52.144;5.430;2023-05-07T06:19:53;22.38;;;17.10;;
44189;SDS011;29856;52.144;5.430;2023-05-07T06:22:18;17.70;;;15.90;;
44189;SDS011;29856;52.144;5.430;2023-05-07T06:24:44;17.83;;;14.93;;
44189;SDS011;29856;52.144;5.430;2023-05-07T06:27:09;22.08;;;18.10;;
44189;SDS011;29856;52.144;5.430;2023-05-07T06:29:35;21.73;;;17.08;;
44189;SDS011;29856;52.144;5.430;2023-05-07T06:32:07;18.95;;;17.00;;
44189;SDS011;29856;52.144;5.430;2023-05-07T06:34:33;18.13;;;16.33;;
44189;SDS011;29856;52.144;5.430;2023-05-07T06:36:58;19.55;;;17.50;;
44189;SDS011;29856;52.144;5.430;2023-05-07T06:39:24;20.98;;;18.20;;
44189;SDS011;29856;52.144;5.430;2023-05-07T06:41:49;19.30;;;17.35;;
44189;SDS011;29856;52.144;5.430;2023-05-07T06:44:15;19.67;;;16.55;;
44189;SDS011;29856;52.144;5.430;2023-05-07T06:46:40;20.15;;;18.15;;
44189;SDS011;29856;52.144;5.430;2023-05-07T06:49:06;20.05;;;17.95;;
44189;SDS011;29856;52.144;5.430;2023-05-07T06:51:32;22.63;;;17.02;;
44189;SDS011;29856;52.144;5.430;2023-05-07T06:53:57;18.73;;;16.83;;
44189;SDS011;29856;52.144;5.430;2023-05-07T06:56:23;22.90;;;18.25;;
44189;SDS011;29856;52.144;5.430;2023-05-07T06:58:48;21.55;;;18.27;;
44189;SDS011;29856;52.144;5.430;2023-05-07T07:01:14;25.58;;;17.63;;
44189;SDS011;29856;52.144;5.430;2023-05-07T07:03:39;20.55;;;18.45;;
44189;SDS011;29856;52.144;5.430;2023-05-07T07:06:04;20.33;;;17.08;;
44189;SDS011;29856;52.144;5.430;2023-05-07T07:08:30;19.55;;;16.58;;
44189;SDS011;29856;52.144;5.430;2023-05-07T07:10:55;18.77;;;16.85;;
44189;SDS011;29856;52.144;5.430;2023-05-07T07:13:22;19.15;;;16.95;;
44189;SDS011;29856;52.144;5.430;2023-05-07T07:15:47;19.17;;;16.40;;
44189;SDS011;29856;52.144;5.430;2023-05-07T07:18:13;19.48;;;17.48;;
44189;SDS011;29856;52.144;5.430;2023-05-07T07:20:38;20.05;;;17.92;;
44189;SDS011;29856;52.144;5.430;2023-05-07T07:23:04;20.27;;;17.75;;
44189;SDS011;29856;52.144;5.430;2023-05-07T07:25:29;19.48;;;17.38;;
44189;SDS011;29856;52.144;5.430;2023-05-07T07:27:55;19.98;;;17.95;;
44189;SDS011;29856;52.144;5.430;2023-05-07T07:30:20;20.23;;;18.20;;
44189;SDS011;29856;52.144;5.430;2023-05-07T07:32:46;19.65;;;16.63;;
44189;SDS011;29856;52.144;5.430;2023-05-07T07:35:11;18.42;;;16.55;;
44189;SDS011;29856;52.144;5.430;2023-05-07T07:37:37;19.60;;;16.10;;
44189;SDS011;29856;52.144;5.430;2023-05-07T07:40:02;19.88;;;16.95;;
44189;SDS011;29856;52.144;5.430;2023-05-07T07:42:28;20.42;;;18.33;;
44189;SDS011;29856;52.144;5.430;2023-05-07T07:44:53;19.77;;;17.77;;
44189;SDS011;29856;52.144;5.430;2023-05-07T07:47:19;19.23;;;16.83;;
44189;SDS011;29856;52.144;5.430;2023-05-07T07:49:44;17.85;;;16.05;;
44189;SDS011;29856;52.144;5.430;2023-05-07T07:52:10;18.35;;;16.02;;
44189;SDS011;29856;52.144;5.430;2023-05-07T07:54:35;17.50;;;15.73;;
44189;SDS011;29856;52.144;5.430;2023-05-07T07:57:01;18.25;;;16.35;;
44189;SDS011;29856;52.144;5.430;2023-05-07T07:59:26;17.73;;;15.95;;
44189;SDS011;29856;52.144;5.430;2023-05-07T08:01:52;20.60;;;16.63;;
44189;SDS011;29856;52.144;5.430;2023-05-07T08:04:17;19.10;;;17.10;;
44189;SDS011;29856;52.144;5.430;2023-05-07T08:06:43;18.00;;;16.23;;
44189;SDS011;29856;52.144;5.430;2023-05-07T08:09:08;20.65;;;16.30;;
44189;SDS011;29856;52.144;5.430;2023-05-07T08:11:34;18.08;;;16.17;;
44189;SDS011;29856;52.144;5.430;2023-05-07T08:13:59;19.13;;;17.13;;
44189;SDS011;29856;52.144;5.430;2023-05-07T08:16:25;18.95;;;16.35;;
44189;SDS011;29856;52.144;5.430;2023-05-07T08:18:50;20.23;;;18.13;;
44189;SDS011;29856;52.144;5.430;2023-05-07T08:21:16;19.67;;;17.67;;
44189;SDS011;29856;52.144;5.430;2023-05-07T08:23:41;18.20;;;16.27;;
44189;SDS011;29856;52.144;5.430;2023-05-07T08:26:07;19.48;;;17.42;;
44189;SDS011;29856;52.144;5.430;2023-05-07T08:28:33;20.48;;;18.38;;
44189;SDS011;29856;52.144;5.430;2023-05-07T08:30:59;21.70;;;19.45;;
44189;SDS011;29856;52.144;5.430;2023-05-07T08:33:24;23.52;;;18.75;;
44189;SDS011;29856;52.144;5.430;2023-05-07T08:35:50;20.92;;;18.73;;
44189;SDS011;29856;52.144;5.430;2023-05-07T08:38:15;22.35;;;20.00;;
44189;SDS011;29856;52.144;5.430;2023-05-07T08:40:41;22.27;;;19.92;;
44189;SDS011;29856;52.144;5.430;2023-05-07T08:43:06;22.48;;;18.50;;
44189;SDS011;29856;52.144;5.430;2023-05-07T08:45:33;20.35;;;18.35;;
44189;SDS011;29856;52.144;5.430;2023-05-07T08:47:59;22.35;;;19.23;;
44189;SDS011;29856;52.144;5.430;2023-05-07T08:50:27;22.33;;;20.00;;
44189;SDS011;29856;52.144;5.430;2023-05-07T08:52:53;20.40;;;18.15;;
44189;SDS011;29856;52.144;5.430;2023-05-07T08:55:18;21.00;;;18.95;;
44189;SDS011;29856;52.144;5.430;2023-05-07T08:57:44;20.17;;;17.90;;
44189;SDS011;29856;52.144;5.430;2023-05-07T09:00:10;22.27;;;19.90;;
44189;SDS011;29856;52.144;5.430;2023-05-07T09:02:36;22.05;;;19.55;;
44189;SDS011;29856;52.144;5.430;2023-05-07T09:05:02;20.65;;;18.67;;
44189;SDS011;29856;52.144;5.430;2023-05-07T09:07:28;20.40;;;18.30;;
44189;SDS011;29856;52.144;5.430;2023-05-07T09:09:54;20.00;;;17.95;;
44189;SDS011;29856;52.144;5.430;2023-05-07T09:12:20;22.10;;;18.63;;
44189;SDS011;29856;52.144;5.430;2023-05-07T09:14:46;20.73;;;18.63;;
44189;SDS011;29856;52.144;5.430;2023-05-07T09:17:12;20.90;;;18.83;;
44189;SDS011;29856;52.144;5.430;2023-05-07T09:19:39;21.90;;;19.67;;
44189;SDS011;29856;52.144;5.430;2023-05-07T09:22:05;23.23;;;20.05;;
44189;SDS011;29856;52.144;5.430;2023-05-07T09:24:31;22.02;;;19.58;;
44189;SDS011;29856;52.144;5.430;2023-05-07T09:26:59;21.10;;;18.88;;
44189;SDS011;29856;52.144;5.430;2023-05-07T09:29:25;19.90;;;17.83;;
44189;SDS011;29856;52.144;5.430;2023-05-07T09:31:51;20.75;;;18.58;;
44189;SDS011;29856;52.144;5.430;2023-05-07T09:34:16;19.70;;;17.55;;
44189;SDS011;29856;52.144;5.430;2023-05-07T09:36:41;19.05;;;16.10;;
44189;SDS011;29856;52.144;5.430;2023-05-07T09:39:07;21.83;;;19.50;;
44189;SDS011;29856;52.144;5.430;2023-05-07T09:41:33;19.17;;;17.17;;
44189;SDS011;29856;52.144;5.430;2023-05-07T09:44:08;17.90;;;16.05;;
44189;SDS011;29856;52.144;5.430;2023-05-07T09:46:34;19.90;;;17.05;;
44189;SDS011;29856;52.144;5.430;2023-05-07T09:49:03;19.92;;;16.70;;
44189;SDS011;29856;52.144;5.430;2023-05-07T09:51:39;18.58;;;16.67;;
44189;SDS011;29856;52.144;5.430;2023-05-07T09:54:08;17.83;;;15.93;;
44189;SDS011;29856;52.144;5.430;2023-05-07T09:56:34;20.35;;;17.05;;
44189;SDS011;29856;52.144;5.430;2023-05-07T09:59:01;17.88;;;16.08;;
44189;SDS011;29856;52.144;5.430;2023-05-07T10:01:29;17.20;;;15.20;;
44189;SDS011;29856;52.144;5.430;2023-05-07T10:03:56;17.00;;;15.30;;
44189;SDS011;29856;52.144;5.430;2023-05-07T10:06:23;18.70;;;16.13;;
44189;SDS011;29856;52.144;5.430;2023-05-07T10:08:50;17.55;;;15.65;;
44189;SDS011;29856;52.144;5.430;2023-05-07T10:11:17;17.83;;;15.52;;
44189;SDS011;29856;52.144;5.430;2023-05-07T10:13:44;17.83;;;15.90;;
44189;SDS011;29856;52.144;5.430;2023-05-07T10:16:11;17.88;;;16.02;;
44189;SDS011;29856;52.144;5.430;2023-05-07T10:18:38;17.55;;;15.30;;
44189;SDS011;29856;52.144;5.430;2023-05-07T10:21:07;16.50;;;14.38;;
44189;SDS011;29856;52.144;5.430;2023-05-07T10:23:36;15.93;;;14.30;;
44189;SDS011;29856;52.144;5.430;2023-05-07T10:26:04;16.23;;;14.60;;
44189;SDS011;29856;52.144;5.430;2023-05-07T10:28:34;17.98;;;16.17;;
44189;SDS011;29856;52.144;5.430;2023-05-07T10:31:25;18.50;;;16.48;;
44189;SDS011;29856;52.144;5.430;2023-05-07T10:34:14;18.40;;;16.10;;
44189;SDS011;29856;52.144;5.430;2023-05-07T10:36:42;17.77;;;15.98;;
44189;SDS011;29856;52.144;5.430;2023-05-07T10:39:09;17.95;;;16.02;;
44189;SDS011;29856;52.144;5.430;2023-05-07T10:41:34;19.50;;;16.33;;
44189;SDS011;29856;52.144;5.430;2023-05-07T10:44:00;24.33;;;17.10;;
44189;SDS011;29856;52.144;5.430;2023-05-07T10:46:25;18.88;;;15.65;;
44189;SDS011;29856;52.144;5.430;2023-05-07T10:51:26;18.35;;;16.45;;
44189;SDS011;29856;52.144;5.430;2023-05-07T10:56:37;18.02;;;16.20;;
44189;SDS011;29856;52.144;5.430;2023-05-07T11:01:57;17.85;;;15.55;;
44189;SDS011;29856;52.144;5.430;2023-05-07T11:04:29;19.80;;;15.88;;
44189;SDS011;29856;52.144;5.430;2023-05-07T11:15:00;16.80;;;15.00;;
44189;SDS011;29856;52.144;5.430;2023-05-07T11:17:30;19.33;;;16.67;;
44189;SDS011;29856;52.144;5.430;2023-05-07T11:19:55;19.88;;;16.33;;
44189;SDS011;29856;52.144;5.430;2023-05-07T11:22:39;22.05;;;17.55;;
44189;SDS011;29856;52.144;5.430;2023-05-07T11:25:05;19.88;;;16.63;;
44189;SDS011;29856;52.144;5.430;2023-05-07T11:27:32;22.05;;;18.08;;
44189;SDS011;29856;52.144;5.430;2023-05-07T11:29:57;19.85;;;16.90;;
44189;SDS011;29856;52.144;5.430;2023-05-07T11:32:24;19.55;;;17.55;;
44189;SDS011;29856;52.144;5.430;2023-05-07T11:34:53;22.90;;;17.67;;
44189;SDS011;29856;52.144;5.430;2023-05-07T11:37:20;22.90;;;18.98;;
44189;SDS011;29856;52.144;5.430;2023-05-07T11:39:46;21.10;;;18.42;;
44189;SDS011;29856;52.144;5.430;2023-05-07T11:44:57;23.48;;;18.65;;
44189;SDS011;29856;52.144;5.430;2023-05-07T11:47:23;20.33;;;18.08;;
44189;SDS011;29856;52.144;5.430;2023-05-07T11:49:49;21.25;;;18.58;;
44189;SDS011;29856;52.144;5.430;2023-05-07T11:52:17;21.65;;;19.40;;
44189;SDS011;29856;52.144;5.430;2023-05-07T11:54:50;22.30;;;19.45;;
44189;SDS011;29856;52.144;5.430;2023-05-07T11:57:16;19.58;;;17.67;;
44189;SDS011;29856;52.144;5.430;2023-05-07T11:59:42;21.38;;;17.45;;
44189;SDS011;29856;52.144;5.430;2023-05-07T12:02:07;24.73;;;17.83;;
44189;SDS011;29856;52.144;5.430;2023-05-07T12:04:33;22.45;;;17.98;;
44189;SDS011;29856;52.144;5.430;2023-05-07T12:06:58;19.10;;;17.10;;
44189;SDS011;29856;52.144;5.430;2023-05-07T12:09:24;23.90;;;17.55;;
44189;SDS011;29856;52.144;5.430;2023-05-07T12:11:51;18.73;;;16.25;;
44189;SDS011;29856;52.144;5.430;2023-05-07T12:14:17;24.50;;;17.42;;
44189;SDS011;29856;52.144;5.430;2023-05-07T12:16:42;17.63;;;15.73;;
44189;SDS011;29856;52.144;5.430;2023-05-07T12:19:09;22.52;;;16.73;;
44189;SDS011;29856;52.144;5.430;2023-05-07T12:21:35;22.10;;;16.50;;
44189;SDS011;29856;52.144;5.430;2023-05-07T12:24:01;17.33;;;15.63;;
44189;SDS011;29856;52.144;5.430;2023-05-07T12:26:26;19.13;;;17.10;;
44189;SDS011;29856;52.144;5.430;2023-05-07T12:28:52;17.95;;;16.15;;
44189;SDS011;29856;52.144;5.430;2023-05-07T12:31:18;18.20;;;16.15;;
44189;SDS011;29856;52.144;5.430;2023-05-07T12:33:43;22.58;;;16.10;;
44189;SDS011;29856;52.144;5.430;2023-05-07T12:36:11;20.90;;;16.40;;
44189;SDS011;29856;52.144;5.430;2023-05-07T12:38:38;18.13;;;16.38;;
44189;SDS011;29856;52.144;5.430;2023-05-07T12:41:04;19.40;;;14.90;;
44189;SDS011;29856;52.144;5.430;2023-05-07T12:43:31;16.02;;;14.30;;
44189;SDS011;29856;52.144;5.430;2023-05-07T12:45:57;15.77;;;14.15;;
44189;SDS011;29856;52.144;5.430;2023-05-07T12:48:25;17.13;;;13.77;;
44189;SDS011;29856;52.144;5.430;2023-05-07T12:50:51;15.85;;;14.27;;
44189;SDS011;29856;52.144;5.430;2023-05-07T12:53:19;16.00;;;14.15;;
44189;SDS011;29856;52.144;5.430;2023-05-07T12:55:47;15.25;;;10.35;;
44189;SDS011;29856;52.144;5.430;2023-05-07T12:58:15;12.27;;;10.80;;
44189;SDS011;29856;52.144;5.430;2023-05-07T13:01:00;15.27;;;10.20;;
44189;SDS011;29856;52.144;5.430;2023-05-07T13:03:29;13.43;;;10.80;;
44189;SDS011;29856;52.144;5.430;2023-05-07T13:06:00;11.13;;;9.93;;
44189;SDS011;29856;52.144;5.430;2023-05-07T13:08:34;14.73;;;10.23;;
44189;SDS011;29856;52.144;5.430;2023-05-07T13:11:02;12.23;;;10.35;;
44189;SDS011;29856;52.144;5.430;2023-05-07T13:13:28;16.67;;;12.25;;
44189;SDS011;29856;52.144;5.430;2023-05-07T13:15:57;14.23;;;11.10;;
44189;SDS011;29856;52.144;5.430;2023-05-07T13:18:26;13.35;;;11.43;;
44189;SDS011;29856;52.144;5.430;2023-05-07T13:20:54;12.00;;;10.75;;
44189;SDS011;29856;52.144;5.430;2023-05-07T13:23:20;15.60;;;12.68;;
44189;SDS011;29856;52.144;5.430;2023-05-07T13:25:46;14.27;;;11.95;;
44189;SDS011;29856;52.144;5.430;2023-05-07T13:28:11;13.45;;;11.93;;
44189;SDS011;29856;52.144;5.430;2023-05-07T13:30:37;13.95;;;11.93;;
44189;SDS011;29856;52.144;5.430;2023-05-07T13:33:02;15.15;;;12.65;;
44189;SDS011;29856;52.144;5.430;2023-05-07T13:35:28;13.77;;;12.35;;
44189;SDS011;29856;52.144;5.430;2023-05-07T13:37:53;15.55;;;13.10;;
44189;SDS011;29856;52.144;5.430;2023-05-07T13:40:19;16.58;;;12.50;;
44189;SDS011;29856;52.144;5.430;2023-05-07T13:42:45;13.95;;;11.40;;
44189;SDS011;29856;52.144;5.430;2023-05-07T13:45:10;13.02;;;11.43;;
44189;SDS011;29856;52.144;5.430;2023-05-07T13:47:36;12.55;;;11.10;;
44189;SDS011;29856;52.144;5.430;2023-05-07T13:50:01;15.18;;;11.25;;
44189;SDS011;29856;52.144;5.430;2023-05-07T13:52:27;15.32;;;13.50;;
44189;SDS011;29856;52.144;5.430;2023-05-07T13:54:52;14.85;;;13.32;;
44189;SDS011;29856;52.144;5.430;2023-05-07T13:57:18;14.30;;;12.80;;
44189;SDS011;29856;52.144;5.430;2023-05-07T13:59:43;14.10;;;12.25;;
44189;SDS011;29856;52.144;5.430;2023-05-07T14:02:09;14.07;;;12.60;;
44189;SDS011;29856;52.144;5.430;2023-05-07T14:04:34;14.73;;;12.98;;
44189;SDS011;29856;52.144;5.430;2023-05-07T14:07:00;16.13;;;12.82;;
44189;SDS011;29856;52.144;5.430;2023-05-07T14:09:25;15.02;;;12.57;;
44189;SDS011;29856;52.144;5.430;2023-05-07T14:11:51;15.23;;;12.88;;
44189;SDS011;29856;52.144;5.430;2023-05-07T14:14:17;14.73;;;12.95;;
44189;SDS011;29856;52.144;5.430;2023-05-07T14:16:43;14.15;;;12.75;;
44189;SDS011;29856;52.144;5.430;2023-05-07T14:19:08;15.85;;;13.52;;
44189;SDS011;29856;52.144;5.430;2023-05-07T14:21:34;15.95;;;13.43;;
44189;SDS011;29856;52.144;5.430;2023-05-07T14:23:59;15.80;;;13.27;;
44189;SDS011;29856;52.144;5.430;2023-05-07T14:26:25;16.65;;;13.23;;
44189;SDS011;29856;52.144;5.430;2023-05-07T14:28:50;16.25;;;13.45;;
44189;SDS011;29856;52.144;5.430;2023-05-07T14:31:16;15.07;;;13.15;;
44189;SDS011;29856;52.144;5.430;2023-05-07T14:33:41;19.00;;;13.90;;
44189;SDS011;29856;52.144;5.430;2023-05-07T14:36:07;18.33;;;13.15;;
44189;SDS011;29856;52.144;5.430;2023-05-07T14:38:32;15.10;;;12.75;;
44189;SDS011;29856;52.144;5.430;2023-05-07T14:40:58;15.27;;;11.82;;